sensor_id;sensor_type;location;lat;lon;timestamp;pressure;altitude;pressure_sealevel;temperature;humidity
13456;BME280;6800;50.940;6.940;2023-03-26T00:03:01;100061.69;;;20.53;36.19
13456;BME280;6800;50.940;6.940;2023-03-26T00:07:03;100064.69;;;20.58;36.65
13456;BME280;6800;50.940;6.940;2023-03-26T00:11:07;100077.94;;;20.58;36.50
13456;BME280;6800;50.940;6.940;2023-03-26T00:15:09;100080.59;;;20.82;36.05
13456;BME280;6800;50.940;6.940;2023-03-26T00:19:10;100074.59;;;20.80;36.02
13456;BME280;6800;50.940;6.940;2023-03-26T00:23:12;100071.13;;;20.88;36.25
13456;BME280;6800;50.940;6.940;2023-03-26T00:27:14;100067.16;;;20.92;36.22
13456;BME280;6800;50.940;6.940;2023-03-26T00:31:16;100061.03;;;20.83;36.11
13456;BME280;6800;50.940;6.940;2023-03-26T00:35:17;100056.72;;;20.82;36.31
13456;BME280;6800;50.940;6.940;2023-03-26T00:39:20;100058.19;;;20.93;36.06
13456;BME280;6800;50.940;6.940;2023-03-26T00:43:22;100050.72;;;20.80;35.92
13456;BME280;6800;50.940;6.940;2023-03-26T00:47:24;100047.28;;;20.80;35.83
13456;BME280;6800;50.940;6.940;2023-03-26T00:51:27;100049.94;;;20.72;36.03
13456;BME280;6800;50.940;6.940;2023-03-26T00:55:28;100045.41;;;20.80;35.96
13456;BME280;6800;50.940;6.940;2023-03-26T00:59:30;100037.34;;;20.74;36.21
13456;BME280;6800;50.940;6.940;2023-03-26T01:03:34;100028.88;;;20.70;35.74
13456;BME280;6800;50.940;6.940;2023-03-26T01:07:36;100026.41;;;20.53;35.99
13456;BME280;6800;50.940;6.940;2023-03-26T01:11:37;100018.94;;;20.56;36.26
13456;BME280;6800;50.940;6.940;2023-03-26T01:15:39;100006.69;;;20.39;36.46
13456;BME280;6800;50.940;6.940;2023-03-26T01:20:14;99997.38;;;20.11;36.69
13456;BME280;6800;50.940;6.940;2023-03-26T01:24:19;99992.56;;;19.98;36.85
13456;BME280;6800;50.940;6.940;2023-03-26T01:28:23;99984.06;;;19.79;37.67
13456;BME280;6800;50.940;6.940;2023-03-26T01:37:48;99981.88;;;19.58;37.79
13456;BME280;6800;50.940;6.940;2023-03-26T01:41:57;99973.63;;;19.53;37.97
13456;BME280;6800;50.940;6.940;2023-03-26T01:46:06;99972.41;;;19.48;38.54
13456;BME280;6800;50.940;6.940;2023-03-26T01:50:09;99968.63;;;19.42;38.48
13456;BME280;6800;50.940;6.940;2023-03-26T01:54:17;99957.44;;;19.30;38.40
13456;BME280;6800;50.940;6.940;2023-03-26T02:03:05;99958.00;;;19.34;38.87
13456;BME280;6800;50.940;6.940;2023-03-26T02:07:14;99948.66;;;19.30;39.15
13456;BME280;6800;50.940;6.940;2023-03-26T02:11:21;99940.28;;;19.34;38.93
13456;BME280;6800;50.940;6.940;2023-03-26T02:15:23;99929.16;;;19.31;39.36
13456;BME280;6800;50.940;6.940;2023-03-26T02:19:25;99931.88;;;19.39;38.96
13456;BME280;6800;50.940;6.940;2023-03-26T02:23:26;99922.97;;;19.56;38.49
13456;BME280;6800;50.940;6.940;2023-03-26T02:27:29;99916.53;;;19.59;38.37
13456;BME280;6800;50.940;6.940;2023-03-26T02:31:31;99907.09;;;19.64;38.60
13456;BME280;6800;50.940;6.940;2023-03-26T02:35:32;99904.13;;;19.59;38.14
13456;BME280;6800;50.940;6.940;2023-03-26T02:39:34;99891.22;;;19.72;38.32
13456;BME280;6800;50.940;6.940;2023-03-26T02:43:36;99885.94;;;19.80;37.93
13456;BME280;6800;50.940;6.940;2023-03-26T02:47:37;99879.59;;;19.89;37.63
13456;BME280;6800;50.940;6.940;2023-03-26T02:51:39;99870.03;;;19.88;37.53
13456;BME280;6800;50.940;6.940;2023-03-26T02:55:40;99862.75;;;19.90;37.32
13456;BME280;6800;50.940;6.940;2023-03-26T02:59:42;99862.72;;;19.98;38.01
13456;BME280;6800;50.940;6.940;2023-03-26T03:03:46;99851.75;;;20.17;37.17
13456;BME280;6800;50.940;6.940;2023-03-26T03:07:47;99855.09;;;20.11;37.14
13456;BME280;6800;50.940;6.940;2023-03-26T03:11:49;99849.97;;;20.10;37.38
13456;BME280;6800;50.940;6.940;2023-03-26T03:15:54;99844.69;;;20.02;36.87
13456;BME280;6800;50.940;6.940;2023-03-26T03:19:56;99837.09;;;19.91;37.14
13456;BME280;6800;50.940;6.940;2023-03-26T03:23:58;99825.31;;;20.01;37.42
13456;BME280;6800;50.940;6.940;2023-03-26T03:28:00;99828.81;;;19.54;38.27
13456;BME280;6800;50.940;6.940;2023-03-26T03:32:02;99815.88;;;19.75;37.85
13456;BME280;6800;50.940;6.940;2023-03-26T03:36:04;99820.34;;;19.90;37.61
13456;BME280;6800;50.940;6.940;2023-03-26T03:40:20;99820.53;;;19.49;38.19
13456;BME280;6800;50.940;6.940;2023-03-26T03:44:21;99815.25;;;19.57;38.47
13456;BME280;6800;50.940;6.940;2023-03-26T03:48:23;99803.44;;;19.99;37.89
13456;BME280;6800;50.940;6.940;2023-03-26T03:52:25;99798.63;;;20.03;38.06
13456;BME280;6800;50.940;6.940;2023-03-26T03:56:28;99794.56;;;19.76;38.36
13456;BME280;6800;50.940;6.940;2023-03-26T04:00:29;99790.25;;;19.59;38.77
13456;BME280;6800;50.940;6.940;2023-03-26T04:04:30;99782.97;;;19.61;39.19
13456;BME280;6800;50.940;6.940;2023-03-26T04:08:33;99770.53;;;19.29;39.81
13456;BME280;6800;50.940;6.940;2023-03-26T04:12:35;99762.97;;;19.42;39.83
13456;BME280;6800;50.940;6.940;2023-03-26T04:16:36;99751.69;;;19.57;39.50
13456;BME280;6800;50.940;6.940;2023-03-26T04:20:40;99743.78;;;19.49;39.87
13456;BME280;6800;50.940;6.940;2023-03-26T04:24:47;99736.31;;;19.44;40.01
13456;BME280;6800;50.940;6.940;2023-03-26T04:28:54;99731.03;;;19.36;40.41
13456;BME280;6800;50.940;6.940;2023-03-26T04:32:56;99729.88;;;19.55;39.86
13456;BME280;6800;50.940;6.940;2023-03-26T04:37:01;99724.75;;;19.53;39.65
13456;BME280;6800;50.940;6.940;2023-03-26T04:41:02;99724.91;;;19.27;40.16
13456;BME280;6800;50.940;6.940;2023-03-26T04:45:08;99711.00;;;19.01;41.13
13456;BME280;6800;50.940;6.940;2023-03-26T04:49:11;99710.50;;;19.14;40.70
13456;BME280;6800;50.940;6.940;2023-03-26T04:53:17;99698.75;;;19.16;40.66
13456;BME280;6800;50.940;6.940;2023-03-26T04:57:33;99698.44;;;19.27;40.31
13456;BME280;6800;50.940;6.940;2023-03-26T05:01:37;99688.19;;;19.49;40.63
13456;BME280;6800;50.940;6.940;2023-03-26T05:05:40;99686.19;;;19.10;40.61
13456;BME280;6800;50.940;6.940;2023-03-26T05:09:41;99676.59;;;18.77;41.69
13456;BME280;6800;50.940;6.940;2023-03-26T05:13:43;99677.09;;;19.05;40.96
13456;BME280;6800;50.940;6.940;2023-03-26T05:17:44;99666.28;;;19.63;40.07
13456;BME280;6800;50.940;6.940;2023-03-26T05:21:47;99671.97;;;19.19;40.84
13456;BME280;6800;50.940;6.940;2023-03-26T05:25:48;99659.72;;;19.51;40.25
13456;BME280;6800;50.940;6.940;2023-03-26T05:29:49;99658.91;;;19.42;40.55
13456;BME280;6800;50.940;6.940;2023-03-26T05:33:51;99647.81;;;19.47;40.46
13456;BME280;6800;50.940;6.940;2023-03-26T05:37:53;99643.31;;;19.47;40.57
13456;BME280;6800;50.940;6.940;2023-03-26T05:41:54;99639.09;;;18.98;41.83
13456;BME280;6800;50.940;6.940;2023-03-26T05:45:56;99627.75;;;19.60;41.00
13456;BME280;6800;50.940;6.940;2023-03-26T05:49:57;99628.91;;;19.58;41.83
13456;BME280;6800;50.940;6.940;2023-03-26T05:53:59;99623.81;;;19.32;42.64
13456;BME280;6800;50.940;6.940;2023-03-26T05:58:01;99629.00;;;18.93;43.96
13456;BME280;6800;50.940;6.940;2023-03-26T06:02:03;99614.28;;;19.15;44.21
13456;BME280;6800;50.940;6.940;2023-03-26T06:06:09;99608.31;;;18.97;44.41
13456;BME280;6800;50.940;6.940;2023-03-26T06:10:12;99601.25;;;18.89;44.52
13456;BME280;6800;50.940;6.940;2023-03-26T06:14:18;99586.47;;;19.19;44.69
13456;BME280;6800;50.940;6.940;2023-03-26T06:18:20;99575.22;;;19.25;45.29
13456;BME280;6800;50.940;6.940;2023-03-26T06:22:23;99569.50;;;18.89;45.42
13456;BME280;6800;50.940;6.940;2023-03-26T06:26:24;99566.00;;;19.05;45.16
13456;BME280;6800;50.940;6.940;2023-03-26T06:30:26;99564.00;;;19.15;45.06
13456;BME280;6800;50.940;6.940;2023-03-26T06:34:27;99568.66;;;18.97;45.38
13456;BME280;6800;50.940;6.940;2023-03-26T06:38:28;99561.41;;;18.50;46.68
13456;BME280;6800;50.940;6.940;2023-03-26T06:42:30;99569.47;;;18.41;46.51
13456;BME280;6800;50.940;6.940;2023-03-26T06:46:51;99550.91;;;19.21;45.44
13456;BME280;6800;50.940;6.940;2023-03-26T06:50:53;99555.44;;;18.97;45.81
13456;BME280;6800;50.940;6.940;2023-03-26T06:54:55;99553.63;;;18.89;46.11
13456;BME280;6800;50.940;6.940;2023-03-26T06:58:57;99542.84;;;18.99;46.21
13456;BME280;6800;50.940;6.940;2023-03-26T07:02:58;99532.34;;;18.34;47.21
13456;BME280;6800;50.940;6.940;2023-03-26T07:06:59;99532.97;;;18.93;46.37
13456;BME280;6800;50.940;6.940;2023-03-26T07:11:01;99516.16;;;18.69;46.77
13456;BME280;6800;50.940;6.940;2023-03-26T07:15:03;99522.59;;;18.59;47.19
13456;BME280;6800;50.940;6.940;2023-03-26T07:19:04;99525.16;;;19.07;46.54
13456;BME280;6800;50.940;6.940;2023-03-26T07:23:06;99527.91;;;19.22;46.15
13456;BME280;6800;50.940;6.940;2023-03-26T07:27:35;99517.28;;;18.67;47.08
13456;BME280;6800;50.940;6.940;2023-03-26T07:31:48;99510.28;;;19.06;46.16
13456;BME280;6800;50.940;6.940;2023-03-26T07:36:06;99506.16;;;19.04;46.77
13456;BME280;6800;50.940;6.940;2023-03-26T07:45:13;99495.81;;;18.06;48.11
13456;BME280;6800;50.940;6.940;2023-03-26T07:49:16;99490.38;;;18.63;47.29
13456;BME280;6800;50.940;6.940;2023-03-26T07:53:18;99489.97;;;18.99;46.38
13456;BME280;6800;50.940;6.940;2023-03-26T08:05:49;99473.88;;;18.53;47.32
13456;BME280;6800;50.940;6.940;2023-03-26T08:10:06;99473.63;;;18.95;46.99
13456;BME280;6800;50.940;6.940;2023-03-26T08:14:16;99460.81;;;18.52;47.50
13456;BME280;6800;50.940;6.940;2023-03-26T08:22:54;99470.22;;;18.22;47.94
13456;BME280;6800;50.940;6.940;2023-03-26T08:27:34;99462.00;;;18.17;48.57
13456;BME280;6800;50.940;6.940;2023-03-26T08:31:39;99453.84;;;18.67;47.30
13456;BME280;6800;50.940;6.940;2023-03-26T08:35:44;99462.25;;;18.70;47.38
13456;BME280;6800;50.940;6.940;2023-03-26T08:39:46;99456.69;;;18.57;47.52
13456;BME280;6800;50.940;6.940;2023-03-26T08:48:16;99458.19;;;19.15;46.39
13456;BME280;6800;50.940;6.940;2023-03-26T09:05:25;99444.47;;;18.24;48.33
13456;BME280;6800;50.940;6.940;2023-03-26T09:09:58;99438.88;;;17.95;49.24
13456;BME280;6800;50.940;6.940;2023-03-26T09:14:27;99429.78;;;17.98;48.35
13456;BME280;6800;50.940;6.940;2023-03-26T09:27:31;99403.53;;;17.56;47.94
13456;BME280;6800;50.940;6.940;2023-03-26T09:40:34;99380.44;;;17.66;47.78
13456;BME280;6800;50.940;6.940;2023-03-26T09:44:54;99373.84;;;17.86;47.83
13456;BME280;6800;50.940;6.940;2023-03-26T09:58:35;99365.84;;;18.50;47.11
13456;BME280;6800;50.940;6.940;2023-03-26T10:11:55;99350.66;;;18.28;47.39
13456;BME280;6800;50.940;6.940;2023-03-26T10:16:22;99339.50;;;18.02;47.60
13456;BME280;6800;50.940;6.940;2023-03-26T10:20:32;99334.63;;;18.38;47.14
13456;BME280;6800;50.940;6.940;2023-03-26T10:29:09;99330.38;;;18.29;46.98
13456;BME280;6800;50.940;6.940;2023-03-26T10:59:16;99289.97;;;19.43;45.55
13456;BME280;6800;50.940;6.940;2023-03-26T11:07:48;99279.13;;;19.90;45.04
13456;BME280;6800;50.940;6.940;2023-03-26T11:16:02;99274.41;;;20.14;44.42
13456;BME280;6800;50.940;6.940;2023-03-26T11:20:13;99268.16;;;19.78;43.98
13456;BME280;6800;50.940;6.940;2023-03-26T11:28:49;99267.16;;;20.08;43.98
13456;BME280;6800;50.940;6.940;2023-03-26T11:33:14;99270.09;;;19.84;44.12
13456;BME280;6800;50.940;6.940;2023-03-26T11:37:32;99261.59;;;20.47;44.25
13456;BME280;6800;50.940;6.940;2023-03-26T11:41:38;99251.91;;;20.54;44.53
13456;BME280;6800;50.940;6.940;2023-03-26T11:45:44;99246.38;;;21.06;43.54
13456;BME280;6800;50.940;6.940;2023-03-26T11:49:48;99253.84;;;21.17;44.02
13456;BME280;6800;50.940;6.940;2023-03-26T11:53:52;99245.47;;;20.99;43.77
13456;BME280;6800;50.940;6.940;2023-03-26T11:57:56;99241.53;;;20.23;45.03
13456;BME280;6800;50.940;6.940;2023-03-26T12:06:30;99244.34;;;20.37;44.92
13456;BME280;6800;50.940;6.940;2023-03-26T12:10:36;99241.59;;;20.15;45.57
13456;BME280;6800;50.940;6.940;2023-03-26T12:14:41;99237.78;;;20.68;44.71
13456;BME280;6800;50.940;6.940;2023-03-26T12:18:43;99235.66;;;20.78;44.09
13456;BME280;6800;50.940;6.940;2023-03-26T12:22:45;99242.34;;;20.39;45.59
13456;BME280;6800;50.940;6.940;2023-03-26T12:26:55;99241.09;;;20.91;44.34
13456;BME280;6800;50.940;6.940;2023-03-26T12:31:01;99236.72;;;21.41;43.38
13456;BME280;6800;50.940;6.940;2023-03-26T12:35:05;99243.88;;;19.89;45.67
13456;BME280;6800;50.940;6.940;2023-03-26T12:43:51;99248.22;;;20.70;44.25
13456;BME280;6800;50.940;6.940;2023-03-26T12:48:14;99246.47;;;20.77;44.54
13456;BME280;6800;50.940;6.940;2023-03-26T12:52:29;99247.09;;;20.79;45.06
13456;BME280;6800;50.940;6.940;2023-03-26T12:56:55;99255.59;;;21.10;44.39
13456;BME280;6800;50.940;6.940;2023-03-26T13:01:26;99252.47;;;20.50;44.49
13456;BME280;6800;50.940;6.940;2023-03-26T13:10:07;99267.00;;;20.54;44.30
13456;BME280;6800;50.940;6.940;2023-03-26T13:22:50;99283.28;;;18.48;49.59
13456;BME280;6800;50.940;6.940;2023-03-26T13:40:15;99282.53;;;20.71;44.72
13456;BME280;6800;50.940;6.940;2023-03-26T13:49:11;99284.88;;;20.81;44.62
13456;BME280;6800;50.940;6.940;2023-03-26T13:53:21;99295.81;;;20.92;44.79
13456;BME280;6800;50.940;6.940;2023-03-26T13:57:31;99293.94;;;19.99;45.62
13456;BME280;6800;50.940;6.940;2023-03-26T14:01:36;99299.81;;;20.38;45.15
13456;BME280;6800;50.940;6.940;2023-03-26T14:05:44;99290.06;;;21.04;43.97
13456;BME280;6800;50.940;6.940;2023-03-26T14:09:57;99304.16;;;20.89;44.21
13456;BME280;6800;50.940;6.940;2023-03-26T14:14:10;99299.97;;;20.66;43.64
13456;BME280;6800;50.940;6.940;2023-03-26T14:27:11;99317.75;;;21.01;42.77
13456;BME280;6800;50.940;6.940;2023-03-26T14:35:30;99328.00;;;21.04;42.78
13456;BME280;6800;50.940;6.940;2023-03-26T14:43:56;99331.16;;;20.78;42.45
13456;BME280;6800;50.940;6.940;2023-03-26T14:52:54;99339.66;;;20.88;40.65
13456;BME280;6800;50.940;6.940;2023-03-26T15:01:27;99348.03;;;20.42;40.36
13456;BME280;6800;50.940;6.940;2023-03-26T15:18:59;99373.88;;;20.25;40.78
13456;BME280;6800;50.940;6.940;2023-03-26T15:23:19;99374.16;;;20.59;40.25
13456;BME280;6800;50.940;6.940;2023-03-26T15:41:09;99400.66;;;20.30;39.68
13456;BME280;6800;50.940;6.940;2023-03-26T15:45:36;99408.25;;;20.48;39.40
13456;BME280;6800;50.940;6.940;2023-03-26T15:54:28;99424.75;;;19.75;40.92
13456;BME280;6800;50.940;6.940;2023-03-26T16:03:28;99436.91;;;20.30;40.48
13456;BME280;6800;50.940;6.940;2023-03-26T16:16:22;99462.22;;;19.72;41.05
13456;BME280;6800;50.940;6.940;2023-03-26T16:20:33;99468.94;;;19.75;40.80
13456;BME280;6800;50.940;6.940;2023-03-26T16:24:40;99475.13;;;19.36;42.03
13456;BME280;6800;50.940;6.940;2023-03-26T16:33:17;99480.66;;;19.11;42.40
13456;BME280;6800;50.940;6.940;2023-03-26T16:37:33;99498.06;;;19.52;41.61
13456;BME280;6800;50.940;6.940;2023-03-26T16:58:54;99543.13;;;19.36;42.65
13456;BME280;6800;50.940;6.940;2023-03-26T17:03:25;99554.44;;;18.41;45.34
13456;BME280;6800;50.940;6.940;2023-03-26T17:07:34;99557.34;;;19.27;43.31
13456;BME280;6800;50.940;6.940;2023-03-26T17:16:07;99578.06;;;19.07;44.25
13456;BME280;6800;50.940;6.940;2023-03-26T17:20:26;99590.94;;;19.02;43.94
13456;BME280;6800;50.940;6.940;2023-03-26T17:24:50;99598.75;;;18.72;44.19
13456;BME280;6800;50.940;6.940;2023-03-26T17:33:15;99631.28;;;18.48;44.53
13456;BME280;6800;50.940;6.940;2023-03-26T17:41:49;99654.19;;;18.31;45.26
13456;BME280;6800;50.940;6.940;2023-03-26T17:45:53;99654.94;;;18.57;43.85
13456;BME280;6800;50.940;6.940;2023-03-26T17:50:11;99667.81;;;18.52;44.27
13456;BME280;6800;50.940;6.940;2023-03-26T17:54:19;99670.72;;;18.41;44.93
13456;BME280;6800;50.940;6.940;2023-03-26T18:02:32;99689.00;;;18.85;43.78
13456;BME280;6800;50.940;6.940;2023-03-26T18:06:45;99700.84;;;18.07;46.32
13456;BME280;6800;50.940;6.940;2023-03-26T18:15:16;99722.50;;;18.60;44.80
13456;BME280;6800;50.940;6.940;2023-03-26T18:19:22;99736.06;;;18.65;44.36
13456;BME280;6800;50.940;6.940;2023-03-26T18:23:35;99745.34;;;18.35;44.24
13456;BME280;6800;50.940;6.940;2023-03-26T18:27:39;99753.69;;;18.48;43.40
13456;BME280;6800;50.940;6.940;2023-03-26T18:31:41;99762.66;;;18.55;43.29
13456;BME280;6800;50.940;6.940;2023-03-26T18:35:52;99779.09;;;17.21;45.68
13456;BME280;6800;50.940;6.940;2023-03-26T18:39:57;99791.31;;;17.83;43.75
13456;BME280;6800;50.940;6.940;2023-03-26T18:44:04;99794.69;;;17.93;43.34
13456;BME280;6800;50.940;6.940;2023-03-26T18:48:11;99802.91;;;18.49;42.02
13456;BME280;6800;50.940;6.940;2023-03-26T18:52:18;99810.34;;;18.20;42.83
13456;BME280;6800;50.940;6.940;2023-03-26T18:56:33;99830.94;;;18.09;43.49
13456;BME280;6800;50.940;6.940;2023-03-26T19:00:36;99827.91;;;18.04;42.96
13456;BME280;6800;50.940;6.940;2023-03-26T19:04:41;99842.00;;;18.12;43.19
13456;BME280;6800;50.940;6.940;2023-03-26T19:08:47;99838.63;;;18.28;42.94
13456;BME280;6800;50.940;6.940;2023-03-26T19:12:56;99851.97;;;18.26;43.49
13456;BME280;6800;50.940;6.940;2023-03-26T19:16:59;99860.28;;;18.06;43.87
13456;BME280;6800;50.940;6.940;2023-03-26T19:21:03;99872.00;;;18.29;43.99
13456;BME280;6800;50.940;6.940;2023-03-26T19:25:06;99881.69;;;18.20;43.78
13456;BME280;6800;50.940;6.940;2023-03-26T19:29:24;99887.66;;;17.61;44.74
13456;BME280;6800;50.940;6.940;2023-03-26T19:33:33;99893.56;;;17.46;43.16
13456;BME280;6800;50.940;6.940;2023-03-26T19:37:48;99900.84;;;15.87;45.68
13456;BME280;6800;50.940;6.940;2023-03-26T19:41:51;99913.28;;;16.23;44.89
13456;BME280;6800;50.940;6.940;2023-03-26T19:45:53;99912.88;;;17.01;43.39
13456;BME280;6800;50.940;6.940;2023-03-26T19:50:24;99912.50;;;17.41;42.34
13456;BME280;6800;50.940;6.940;2023-03-26T19:54:26;99933.50;;;17.33;42.71
13456;BME280;6800;50.940;6.940;2023-03-26T19:58:30;99943.22;;;17.77;40.98
13456;BME280;6800;50.940;6.940;2023-03-26T20:02:33;99961.03;;;17.75;41.50
13456;BME280;6800;50.940;6.940;2023-03-26T20:06:34;99954.69;;;17.24;41.28
13456;BME280;6800;50.940;6.940;2023-03-26T20:10:44;99961.59;;;17.07;41.19
13456;BME280;6800;50.940;6.940;2023-03-26T20:14:45;99957.69;;;17.01;40.18
13456;BME280;6800;50.940;6.940;2023-03-26T20:18:48;99973.28;;;17.22;39.75
13456;BME280;6800;50.940;6.940;2023-03-26T20:22:54;99983.44;;;17.44;39.75
13456;BME280;6800;50.940;6.940;2023-03-26T20:26:55;99986.69;;;16.65;40.71
13456;BME280;6800;50.940;6.940;2023-03-26T20:30:56;99986.72;;;17.29;41.47
13456;BME280;6800;50.940;6.940;2023-03-26T20:34:58;99997.06;;;17.67;39.25
13456;BME280;6800;50.940;6.940;2023-03-26T20:39:00;100011.03;;;16.95;39.67
13456;BME280;6800;50.940;6.940;2023-03-26T20:43:08;100015.28;;;17.06;39.36
13456;BME280;6800;50.940;6.940;2023-03-26T20:47:09;100025.63;;;16.80;38.93
13456;BME280;6800;50.940;6.940;2023-03-26T20:51:12;100041.59;;;16.79;38.98
13456;BME280;6800;50.940;6.940;2023-03-26T20:55:17;100052.06;;;17.07;38.88
13456;BME280;6800;50.940;6.940;2023-03-26T20:59:24;100060.56;;;17.29;38.11
13456;BME280;6800;50.940;6.940;2023-03-26T21:03:30;100062.41;;;16.72;38.79
13456;BME280;6800;50.940;6.940;2023-03-26T21:07:42;100076.03;;;16.58;38.59
13456;BME280;6800;50.940;6.940;2023-03-26T21:12:19;100078.03;;;16.93;37.91
13456;BME280;6800;50.940;6.940;2023-03-26T21:16:28;100086.16;;;16.53;38.37
13456;BME280;6800;50.940;6.940;2023-03-26T21:20:31;100102.66;;;16.74;37.15
13456;BME280;6800;50.940;6.940;2023-03-26T21:29:24;100116.78;;;16.45;37.43
13456;BME280;6800;50.940;6.940;2023-03-26T21:33:26;100135.84;;;15.99;38.06
13456;BME280;6800;50.940;6.940;2023-03-26T21:37:29;100141.25;;;16.16;36.70
13456;BME280;6800;50.940;6.940;2023-03-26T21:41:33;100149.41;;;16.04;36.68
13456;BME280;6800;50.940;6.940;2023-03-26T21:45:42;100157.66;;;16.29;36.66
13456;BME280;6800;50.940;6.940;2023-03-26T21:49:44;100162.03;;;16.00;36.72
13456;BME280;6800;50.940;6.940;2023-03-26T21:53:45;100177.53;;;16.03;36.31
13456;BME280;6800;50.940;6.940;2023-03-26T22:06:59;100203.63;;;15.76;36.70
13456;BME280;6800;50.940;6.940;2023-03-26T22:11:05;100227.28;;;15.97;35.97
13456;BME280;6800;50.940;6.940;2023-03-26T22:15:07;100223.28;;;15.31;36.87
13456;BME280;6800;50.940;6.940;2023-03-26T22:19:09;100244.81;;;15.56;37.38
13456;BME280;6800;50.940;6.940;2023-03-26T22:23:13;100257.09;;;16.07;35.90
13456;BME280;6800;50.940;6.940;2023-03-26T22:27:14;100259.22;;;15.41;36.99
13456;BME280;6800;50.940;6.940;2023-03-26T22:31:16;100269.69;;;15.52;36.86
13456;BME280;6800;50.940;6.940;2023-03-26T22:35:18;100284.56;;;14.79;38.49
13456;BME280;6800;50.940;6.940;2023-03-26T22:39:20;100293.75;;;15.69;35.99
13456;BME280;6800;50.940;6.940;2023-03-26T22:43:21;100306.53;;;15.73;36.02
13456;BME280;6800;50.940;6.940;2023-03-26T22:47:24;100323.56;;;14.95;37.08
13456;BME280;6800;50.940;6.940;2023-03-26T22:51:29;100330.97;;;15.32;36.29
13456;BME280;6800;50.940;6.940;2023-03-26T22:55:34;100346.19;;;15.29;36.12
13456;BME280;6800;50.940;6.940;2023-03-26T22:59:59;100363.09;;;15.04;36.71
13456;BME280;6800;50.940;6.940;2023-03-26T23:04:14;100370.97;;;15.04;36.45
13456;BME280;6800;50.940;6.940;2023-03-26T23:08:47;100384.88;;;14.84;37.10
13456;BME280;6800;50.940;6.940;2023-03-26T23:12:54;100392.19;;;14.69;36.52
13456;BME280;6800;50.940;6.940;2023-03-26T23:16:57;100401.59;;;14.50;36.63
13456;BME280;6800;50.940;6.940;2023-03-26T23:20:58;100403.00;;;14.76;36.49
13456;BME280;6800;50.940;6.940;2023-03-26T23:25:00;100417.59;;;14.47;36.85
13456;BME280;6800;50.940;6.940;2023-03-26T23:29:02;100429.16;;;14.44;37.33
13456;BME280;6800;50.940;6.940;2023-03-26T23:33:05;100442.44;;;14.19;37.14
13456;BME280;6800;50.940;6.940;2023-03-26T23:37:06;100448.19;;;14.59;36.61
13456;BME280;6800;50.940;6.940;2023-03-26T23:41:12;100453.75;;;14.32;36.48
13456;BME280;6800;50.940;6.940;2023-03-26T23:45:16;100477.53;;;14.18;36.99
13456;BME280;6800;50.940;6.940;2023-03-26T23:49:18;100481.00;;;14.53;36.43
13456;BME280;6800;50.940;6.940;2023-03-26T23:53:22;100487.31;;;14.40;36.78
13456;BME280;6800;50.940;6.940;2023-03-26T23:57:24;100505.19;;;14.35;38.09
